sensor_id;sensor_type;location;lat;lon;timestamp;temperature;humidity
49379;DHT22;35254;47.990;-1.608;2023-02-13T00:02:05;15.80;52.00
49379;DHT22;35254;47.990;-1.608;2023-02-13T00:04:30;15.80;51.90
49379;DHT22;35254;47.990;-1.608;2023-02-13T00:06:56;15.80;51.90
49379;DHT22;35254;47.990;-1.608;2023-02-13T00:09:22;15.70;51.90
49379;DHT22;35254;47.990;-1.608;2023-02-13T00:11:47;15.70;51.80
49379;DHT22;35254;47.990;-1.608;2023-02-13T00:14:13;15.80;51.80
49379;DHT22;35254;47.990;-1.608;2023-02-13T00:16:39;15.80;51.80
49379;DHT22;35254;47.990;-1.608;2023-02-13T00:19:04;15.80;51.70
49379;DHT22;35254;47.990;-1.608;2023-02-13T00:21:30;15.80;51.70
49379;DHT22;35254;47.990;-1.608;2023-02-13T00:23:55;15.80;51.60
49379;DHT22;35254;47.990;-1.608;2023-02-13T00:26:21;15.80;51.50
49379;DHT22;35254;47.990;-1.608;2023-02-13T00:28:46;15.80;51.50
49379;DHT22;35254;47.990;-1.608;2023-02-13T00:31:15;15.80;51.50
49379;DHT22;35254;47.990;-1.608;2023-02-13T00:33:41;15.80;51.40
49379;DHT22;35254;47.990;-1.608;2023-02-13T00:36:09;15.80;51.40
49379;DHT22;35254;47.990;-1.608;2023-02-13T00:38:37;15.90;51.40
49379;DHT22;35254;47.990;-1.608;2023-02-13T00:41:03;15.90;51.30
49379;DHT22;35254;47.990;-1.608;2023-02-13T00:43:29;15.90;51.30
49379;DHT22;35254;47.990;-1.608;2023-02-13T00:45:55;15.90;51.30
49379;DHT22;35254;47.990;-1.608;2023-02-13T00:48:23;15.90;51.30
49379;DHT22;35254;47.990;-1.608;2023-02-13T00:50:49;15.90;51.20
49379;DHT22;35254;47.990;-1.608;2023-02-13T00:53:17;15.90;51.30
49379;DHT22;35254;47.990;-1.608;2023-02-13T00:55:43;15.90;51.30
49379;DHT22;35254;47.990;-1.608;2023-02-13T00:58:08;15.90;51.30
49379;DHT22;35254;47.990;-1.608;2023-02-13T01:00:34;15.90;51.20
49379;DHT22;35254;47.990;-1.608;2023-02-13T01:03:00;15.90;51.20
49379;DHT22;35254;47.990;-1.608;2023-02-13T01:05:26;15.90;51.10
49379;DHT22;35254;47.990;-1.608;2023-02-13T01:07:53;15.90;51.10
49379;DHT22;35254;47.990;-1.608;2023-02-13T01:10:19;15.90;51.20
49379;DHT22;35254;47.990;-1.608;2023-02-13T01:12:44;15.90;51.10
49379;DHT22;35254;47.990;-1.608;2023-02-13T01:15:10;15.90;50.90
49379;DHT22;35254;47.990;-1.608;2023-02-13T01:17:36;15.90;50.80
49379;DHT22;35254;47.990;-1.608;2023-02-13T01:20:05;15.90;50.80
49379;DHT22;35254;47.990;-1.608;2023-02-13T01:22:31;16.00;50.60
49379;DHT22;35254;47.990;-1.608;2023-02-13T01:24:57;15.90;50.60
49379;DHT22;35254;47.990;-1.608;2023-02-13T01:27:22;15.90;50.60
49379;DHT22;35254;47.990;-1.608;2023-02-13T01:29:48;15.90;50.60
49379;DHT22;35254;47.990;-1.608;2023-02-13T01:32:14;15.90;50.50
49379;DHT22;35254;47.990;-1.608;2023-02-13T01:34:39;15.90;50.50
49379;DHT22;35254;47.990;-1.608;2023-02-13T01:37:05;15.90;50.40
49379;DHT22;35254;47.990;-1.608;2023-02-13T01:39:32;15.90;50.50
49379;DHT22;35254;47.990;-1.608;2023-02-13T01:41:57;15.90;50.40
49379;DHT22;35254;47.990;-1.608;2023-02-13T01:44:52;16.00;50.50
49379;DHT22;35254;47.990;-1.608;2023-02-13T01:52:46;15.90;50.30
49379;DHT22;35254;47.990;-1.608;2023-02-13T01:55:14;16.00;50.30
49379;DHT22;35254;47.990;-1.608;2023-02-13T01:57:42;15.90;50.30
49379;DHT22;35254;47.990;-1.608;2023-02-13T02:00:11;15.90;50.30
49379;DHT22;35254;47.990;-1.608;2023-02-13T02:02:42;15.90;50.20
49379;DHT22;35254;47.990;-1.608;2023-02-13T02:05:09;15.90;50.20
49379;DHT22;35254;47.990;-1.608;2023-02-13T02:07:37;15.90;50.10
49379;DHT22;35254;47.990;-1.608;2023-02-13T02:10:22;15.90;50.00
49379;DHT22;35254;47.990;-1.608;2023-02-13T02:15:32;15.90;49.70
49379;DHT22;35254;47.990;-1.608;2023-02-13T02:17:58;15.90;49.80
49379;DHT22;35254;47.990;-1.608;2023-02-13T02:34:36;15.90;49.60
49379;DHT22;35254;47.990;-1.608;2023-02-13T02:42:18;15.90;49.50
49379;DHT22;35254;47.990;-1.608;2023-02-13T02:45:15;15.90;49.50
49379;DHT22;35254;47.990;-1.608;2023-02-13T02:50:50;15.90;49.50
49379;DHT22;35254;47.990;-1.608;2023-02-13T02:56:57;15.90;49.30
49379;DHT22;35254;47.990;-1.608;2023-02-13T02:59:27;15.90;49.40
49379;DHT22;35254;47.990;-1.608;2023-02-13T03:02:14;15.90;49.30
49379;DHT22;35254;47.990;-1.608;2023-02-13T03:05:20;15.90;49.20
49379;DHT22;35254;47.990;-1.608;2023-02-13T03:08:04;15.90;49.20
49379;DHT22;35254;47.990;-1.608;2023-02-13T03:10:34;15.90;49.40
49379;DHT22;35254;47.990;-1.608;2023-02-13T03:13:38;15.90;49.30
49379;DHT22;35254;47.990;-1.608;2023-02-13T03:16:05;15.90;49.70
49379;DHT22;35254;47.990;-1.608;2023-02-13T03:18:56;16.00;50.90
49379;DHT22;35254;47.990;-1.608;2023-02-13T03:21:58;16.00;50.80
49379;DHT22;35254;47.990;-1.608;2023-02-13T03:28:12;15.90;49.90
49379;DHT22;35254;47.990;-1.608;2023-02-13T03:31:16;15.80;49.70
49379;DHT22;35254;47.990;-1.608;2023-02-13T03:34:05;15.80;49.50
49379;DHT22;35254;47.990;-1.608;2023-02-13T03:39:43;15.80;49.40
49379;DHT22;35254;47.990;-1.608;2023-02-13T03:45:23;15.70;49.50
49379;DHT22;35254;47.990;-1.608;2023-02-13T03:48:09;15.80;49.40
49379;DHT22;35254;47.990;-1.608;2023-02-13T03:50:57;15.80;49.20
49379;DHT22;35254;47.990;-1.608;2023-02-13T03:53:23;15.80;49.00
49379;DHT22;35254;47.990;-1.608;2023-02-13T03:55:50;15.80;48.80
49379;DHT22;35254;47.990;-1.608;2023-02-13T03:58:40;15.90;48.60
49379;DHT22;35254;47.990;-1.608;2023-02-13T04:01:27;15.90;48.60
49379;DHT22;35254;47.990;-1.608;2023-02-13T04:04:11;15.90;48.50
49379;DHT22;35254;47.990;-1.608;2023-02-13T04:06:46;15.90;48.60
49379;DHT22;35254;47.990;-1.608;2023-02-13T04:09:14;15.90;48.50
49379;DHT22;35254;47.990;-1.608;2023-02-13T04:11:43;15.90;48.70
49379;DHT22;35254;47.990;-1.608;2023-02-13T04:14:19;15.90;48.70
49379;DHT22;35254;47.990;-1.608;2023-02-13T04:16:52;15.80;48.60
49379;DHT22;35254;47.990;-1.608;2023-02-13T04:19:20;15.90;48.90
49379;DHT22;35254;47.990;-1.608;2023-02-13T04:21:50;15.90;49.00
49379;DHT22;35254;47.990;-1.608;2023-02-13T04:24:20;15.90;48.90
49379;DHT22;35254;47.990;-1.608;2023-02-13T04:26:45;15.80;49.00
49379;DHT22;35254;47.990;-1.608;2023-02-13T04:29:11;15.80;49.20
49379;DHT22;35254;47.990;-1.608;2023-02-13T04:31:37;15.80;49.20
49379;DHT22;35254;47.990;-1.608;2023-02-13T04:34:03;15.80;49.20
49379;DHT22;35254;47.990;-1.608;2023-02-13T04:36:29;15.90;49.20
49379;DHT22;35254;47.990;-1.608;2023-02-13T04:38:55;15.90;49.20
49379;DHT22;35254;47.990;-1.608;2023-02-13T04:41:20;15.90;49.20
49379;DHT22;35254;47.990;-1.608;2023-02-13T04:43:46;15.80;49.30
49379;DHT22;35254;47.990;-1.608;2023-02-13T04:46:11;15.80;49.20
49379;DHT22;35254;47.990;-1.608;2023-02-13T04:48:37;15.90;49.40
49379;DHT22;35254;47.990;-1.608;2023-02-13T04:51:03;15.90;49.30
49379;DHT22;35254;47.990;-1.608;2023-02-13T04:53:28;15.90;49.30
49379;DHT22;35254;47.990;-1.608;2023-02-13T04:55:54;15.80;49.10
49379;DHT22;35254;47.990;-1.608;2023-02-13T04:58:20;15.80;49.10
49379;DHT22;35254;47.990;-1.608;2023-02-13T05:00:45;15.80;49.00
49379;DHT22;35254;47.990;-1.608;2023-02-13T05:03:12;15.80;48.90
49379;DHT22;35254;47.990;-1.608;2023-02-13T05:05:38;15.80;49.00
49379;DHT22;35254;47.990;-1.608;2023-02-13T05:08:07;15.80;48.80
49379;DHT22;35254;47.990;-1.608;2023-02-13T05:10:33;15.80;48.80
49379;DHT22;35254;47.990;-1.608;2023-02-13T05:12:59;15.80;48.90
49379;DHT22;35254;47.990;-1.608;2023-02-13T05:15:25;15.80;48.90
49379;DHT22;35254;47.990;-1.608;2023-02-13T05:17:51;15.80;48.80
49379;DHT22;35254;47.990;-1.608;2023-02-13T05:20:17;15.80;48.70
49379;DHT22;35254;47.990;-1.608;2023-02-13T05:22:44;15.80;49.00
49379;DHT22;35254;47.990;-1.608;2023-02-13T05:25:28;15.90;48.90
49379;DHT22;35254;47.990;-1.608;2023-02-13T05:27:54;15.80;48.80
49379;DHT22;35254;47.990;-1.608;2023-02-13T05:30:20;15.80;48.70
49379;DHT22;35254;47.990;-1.608;2023-02-13T05:32:45;15.80;48.60
49379;DHT22;35254;47.990;-1.608;2023-02-13T05:35:11;15.80;48.50
49379;DHT22;35254;47.990;-1.608;2023-02-13T05:37:37;15.80;48.50
49379;DHT22;35254;47.990;-1.608;2023-02-13T05:40:02;15.80;48.40
49379;DHT22;35254;47.990;-1.608;2023-02-13T05:42:28;15.80;48.30
49379;DHT22;35254;47.990;-1.608;2023-02-13T05:44:53;15.80;48.10
49379;DHT22;35254;47.990;-1.608;2023-02-13T05:47:19;15.80;48.10
49379;DHT22;35254;47.990;-1.608;2023-02-13T05:49:45;15.80;48.10
49379;DHT22;35254;47.990;-1.608;2023-02-13T05:52:10;15.80;48.00
49379;DHT22;35254;47.990;-1.608;2023-02-13T05:54:36;15.80;48.10
49379;DHT22;35254;47.990;-1.608;2023-02-13T05:57:03;15.80;48.00
49379;DHT22;35254;47.990;-1.608;2023-02-13T05:59:28;15.80;47.90
49379;DHT22;35254;47.990;-1.608;2023-02-13T06:01:54;15.80;47.80
49379;DHT22;35254;47.990;-1.608;2023-02-13T06:04:20;15.80;47.80
49379;DHT22;35254;47.990;-1.608;2023-02-13T06:06:45;15.80;47.70
49379;DHT22;35254;47.990;-1.608;2023-02-13T06:09:11;15.80;47.60
49379;DHT22;35254;47.990;-1.608;2023-02-13T06:11:37;15.80;47.50
49379;DHT22;35254;47.990;-1.608;2023-02-13T06:14:02;15.80;47.50
49379;DHT22;35254;47.990;-1.608;2023-02-13T06:16:28;15.80;47.50
49379;DHT22;35254;47.990;-1.608;2023-02-13T06:18:56;15.70;47.30
49379;DHT22;35254;47.990;-1.608;2023-02-13T06:21:21;15.80;47.50
49379;DHT22;35254;47.990;-1.608;2023-02-13T06:23:47;15.80;47.40
49379;DHT22;35254;47.990;-1.608;2023-02-13T06:26:13;15.80;47.50
49379;DHT22;35254;47.990;-1.608;2023-02-13T06:28:38;15.80;47.30
49379;DHT22;35254;47.990;-1.608;2023-02-13T06:31:04;15.70;47.20
49379;DHT22;35254;47.990;-1.608;2023-02-13T06:33:30;15.70;47.10
49379;DHT22;35254;47.990;-1.608;2023-02-13T06:35:55;15.70;47.10
49379;DHT22;35254;47.990;-1.608;2023-02-13T06:38:21;15.70;47.00
49379;DHT22;35254;47.990;-1.608;2023-02-13T06:40:47;15.70;47.00
49379;DHT22;35254;47.990;-1.608;2023-02-13T06:43:13;15.70;47.00
49379;DHT22;35254;47.990;-1.608;2023-02-13T06:45:40;15.70;47.10
49379;DHT22;35254;47.990;-1.608;2023-02-13T06:48:06;15.70;47.20
49379;DHT22;35254;47.990;-1.608;2023-02-13T06:50:32;15.70;47.10
49379;DHT22;35254;47.990;-1.608;2023-02-13T06:52:59;15.70;47.10
49379;DHT22;35254;47.990;-1.608;2023-02-13T06:55:25;15.70;47.10
49379;DHT22;35254;47.990;-1.608;2023-02-13T06:57:51;15.70;47.10
49379;DHT22;35254;47.990;-1.608;2023-02-13T07:00:17;15.70;47.10
49379;DHT22;35254;47.990;-1.608;2023-02-13T07:02:44;15.70;47.10
49379;DHT22;35254;47.990;-1.608;2023-02-13T07:05:10;15.70;47.10
49379;DHT22;35254;47.990;-1.608;2023-02-13T07:07:38;15.70;47.00
49379;DHT22;35254;47.990;-1.608;2023-02-13T07:10:05;15.70;46.90
49379;DHT22;35254;47.990;-1.608;2023-02-13T07:12:35;15.70;47.00
49379;DHT22;35254;47.990;-1.608;2023-02-13T07:15:02;15.70;46.90
49379;DHT22;35254;47.990;-1.608;2023-02-13T07:17:28;15.70;46.90
49379;DHT22;35254;47.990;-1.608;2023-02-13T07:19:53;15.70;47.00
49379;DHT22;35254;47.990;-1.608;2023-02-13T07:22:19;15.70;47.00
49379;DHT22;35254;47.990;-1.608;2023-02-13T07:24:45;15.70;46.90
49379;DHT22;35254;47.990;-1.608;2023-02-13T07:27:10;15.70;47.00
49379;DHT22;35254;47.990;-1.608;2023-02-13T07:29:36;15.70;46.90
49379;DHT22;35254;47.990;-1.608;2023-02-13T07:32:01;15.60;47.00
49379;DHT22;35254;47.990;-1.608;2023-02-13T07:34:27;15.60;47.00
49379;DHT22;35254;47.990;-1.608;2023-02-13T07:36:53;15.70;47.00
49379;DHT22;35254;47.990;-1.608;2023-02-13T07:39:18;15.70;46.90
49379;DHT22;35254;47.990;-1.608;2023-02-13T07:41:44;15.70;46.80
49379;DHT22;35254;47.990;-1.608;2023-02-13T07:44:10;15.70;47.00
49379;DHT22;35254;47.990;-1.608;2023-02-13T07:46:36;15.60;47.00
49379;DHT22;35254;47.990;-1.608;2023-02-13T07:49:02;15.70;47.00
49379;DHT22;35254;47.990;-1.608;2023-02-13T07:51:28;15.60;47.10
49379;DHT22;35254;47.990;-1.608;2023-02-13T07:53:54;15.70;47.10
49379;DHT22;35254;47.990;-1.608;2023-02-13T07:56:20;15.60;47.10
49379;DHT22;35254;47.990;-1.608;2023-02-13T07:58:46;15.70;47.20
49379;DHT22;35254;47.990;-1.608;2023-02-13T08:01:14;15.70;47.20
49379;DHT22;35254;47.990;-1.608;2023-02-13T08:03:40;15.60;47.30
49379;DHT22;35254;47.990;-1.608;2023-02-13T08:06:06;15.70;47.30
49379;DHT22;35254;47.990;-1.608;2023-02-13T08:08:33;15.70;47.30
49379;DHT22;35254;47.990;-1.608;2023-02-13T08:11:21;15.70;47.40
49379;DHT22;35254;47.990;-1.608;2023-02-13T08:14:06;15.70;47.40
49379;DHT22;35254;47.990;-1.608;2023-02-13T08:16:31;15.70;47.40
49379;DHT22;35254;47.990;-1.608;2023-02-13T08:18:57;15.70;47.50
49379;DHT22;35254;47.990;-1.608;2023-02-13T08:21:23;15.70;47.50
49379;DHT22;35254;47.990;-1.608;2023-02-13T08:23:48;15.70;47.50
49379;DHT22;35254;47.990;-1.608;2023-02-13T08:26:16;15.70;47.50
49379;DHT22;35254;47.990;-1.608;2023-02-13T08:28:42;15.70;47.50
49379;DHT22;35254;47.990;-1.608;2023-02-13T08:31:11;15.70;47.50
49379;DHT22;35254;47.990;-1.608;2023-02-13T08:33:37;15.70;47.50
49379;DHT22;35254;47.990;-1.608;2023-02-13T08:36:04;15.70;47.50
49379;DHT22;35254;47.990;-1.608;2023-02-13T08:38:31;15.70;47.40
49379;DHT22;35254;47.990;-1.608;2023-02-13T08:40:57;15.70;47.50
49379;DHT22;35254;47.990;-1.608;2023-02-13T08:43:22;15.70;47.60
49379;DHT22;35254;47.990;-1.608;2023-02-13T08:45:48;15.70;47.60
49379;DHT22;35254;47.990;-1.608;2023-02-13T08:48:14;15.70;47.60
49379;DHT22;35254;47.990;-1.608;2023-02-13T08:50:39;15.70;47.50
49379;DHT22;35254;47.990;-1.608;2023-02-13T08:53:05;15.70;47.60
49379;DHT22;35254;47.990;-1.608;2023-02-13T08:55:31;15.70;47.50
49379;DHT22;35254;47.990;-1.608;2023-02-13T08:58:03;15.70;47.60
49379;DHT22;35254;47.990;-1.608;2023-02-13T09:00:30;15.70;47.80
49379;DHT22;35254;47.990;-1.608;2023-02-13T09:03:00;15.70;47.80
49379;DHT22;35254;47.990;-1.608;2023-02-13T09:05:26;15.80;47.80
49379;DHT22;35254;47.990;-1.608;2023-02-13T09:07:53;15.70;47.70
49379;DHT22;35254;47.990;-1.608;2023-02-13T09:10:19;15.70;47.80
49379;DHT22;35254;47.990;-1.608;2023-02-13T09:12:51;15.80;47.70
49379;DHT22;35254;47.990;-1.608;2023-02-13T09:15:17;15.70;47.80
49379;DHT22;35254;47.990;-1.608;2023-02-13T09:17:42;15.80;47.80
49379;DHT22;35254;47.990;-1.608;2023-02-13T09:20:08;15.70;48.00
49379;DHT22;35254;47.990;-1.608;2023-02-13T09:22:34;15.80;48.00
49379;DHT22;35254;47.990;-1.608;2023-02-13T09:25:00;15.80;48.10
49379;DHT22;35254;47.990;-1.608;2023-02-13T09:27:29;15.80;48.10
49379;DHT22;35254;47.990;-1.608;2023-02-13T09:29:55;15.90;48.10
49379;DHT22;35254;47.990;-1.608;2023-02-13T09:32:20;15.90;48.00
49379;DHT22;35254;47.990;-1.608;2023-02-13T09:34:46;15.90;47.90
49379;DHT22;35254;47.990;-1.608;2023-02-13T09:37:11;15.90;48.00
49379;DHT22;35254;47.990;-1.608;2023-02-13T09:39:37;15.90;48.00
49379;DHT22;35254;47.990;-1.608;2023-02-13T09:42:10;15.90;47.90
49379;DHT22;35254;47.990;-1.608;2023-02-13T09:44:42;15.90;47.90
49379;DHT22;35254;47.990;-1.608;2023-02-13T09:49:50;16.00;47.80
49379;DHT22;35254;47.990;-1.608;2023-02-13T09:52:17;16.10;48.00
49379;DHT22;35254;47.990;-1.608;2023-02-13T09:54:42;16.10;48.00
49379;DHT22;35254;47.990;-1.608;2023-02-13T10:00:43;16.10;48.10
49379;DHT22;35254;47.990;-1.608;2023-02-13T10:03:31;16.10;48.10
49379;DHT22;35254;47.990;-1.608;2023-02-13T10:06:35;16.10;48.20
49379;DHT22;35254;47.990;-1.608;2023-02-13T10:09:24;16.10;48.10
49379;DHT22;35254;47.990;-1.608;2023-02-13T10:17:04;16.20;51.30
49379;DHT22;35254;47.990;-1.608;2023-02-13T10:19:36;16.20;50.30
49379;DHT22;35254;47.990;-1.608;2023-02-13T10:22:12;16.20;49.40
49379;DHT22;35254;47.990;-1.608;2023-02-13T10:24:51;16.30;49.50
49379;DHT22;35254;47.990;-1.608;2023-02-13T10:27:20;16.30;49.70
49379;DHT22;35254;47.990;-1.608;2023-02-13T10:35:44;16.40;51.40
49379;DHT22;35254;47.990;-1.608;2023-02-13T10:38:15;16.40;51.70
49379;DHT22;35254;47.990;-1.608;2023-02-13T10:40:59;16.40;52.50
49379;DHT22;35254;47.990;-1.608;2023-02-13T10:43:31;16.40;53.10
49379;DHT22;35254;47.990;-1.608;2023-02-13T10:46:10;16.40;54.10
49379;DHT22;35254;47.990;-1.608;2023-02-13T10:51:29;16.60;57.00
49379;DHT22;35254;47.990;-1.608;2023-02-13T11:02:33;16.80;61.00
49379;DHT22;35254;47.990;-1.608;2023-02-13T11:05:18;16.90;61.80
49379;DHT22;35254;47.990;-1.608;2023-02-13T11:07:46;17.00;61.80
49379;DHT22;35254;47.990;-1.608;2023-02-13T11:10:24;17.00;61.00
49379;DHT22;35254;47.990;-1.608;2023-02-13T11:12:50;17.00;62.40
49379;DHT22;35254;47.990;-1.608;2023-02-13T11:17:50;17.10;62.90
49379;DHT22;35254;47.990;-1.608;2023-02-13T11:20:38;17.20;62.50
49379;DHT22;35254;47.990;-1.608;2023-02-13T11:23:21;17.20;63.20
49379;DHT22;35254;47.990;-1.608;2023-02-13T11:26:06;17.20;64.20
49379;DHT22;35254;47.990;-1.608;2023-02-13T11:28:43;17.20;64.20
49379;DHT22;35254;47.990;-1.608;2023-02-13T11:31:35;17.30;62.50
49379;DHT22;35254;47.990;-1.608;2023-02-13T11:36:54;17.30;65.50
49379;DHT22;35254;47.990;-1.608;2023-02-13T11:39:31;17.50;65.20
49379;DHT22;35254;47.990;-1.608;2023-02-13T11:41:57;17.50;63.80
49379;DHT22;35254;47.990;-1.608;2023-02-13T11:44:29;17.50;64.60
49379;DHT22;35254;47.990;-1.608;2023-02-13T11:46:58;17.50;66.90
49379;DHT22;35254;47.990;-1.608;2023-02-13T11:49:26;17.70;64.80
49379;DHT22;35254;47.990;-1.608;2023-02-13T11:51:54;17.70;64.50
49379;DHT22;35254;47.990;-1.608;2023-02-13T11:54:22;17.70;65.40
49379;DHT22;35254;47.990;-1.608;2023-02-13T11:56:56;17.70;67.00
49379;DHT22;35254;47.990;-1.608;2023-02-13T11:59:25;17.70;65.60
49379;DHT22;35254;47.990;-1.608;2023-02-13T12:02:20;17.70;65.00
49379;DHT22;35254;47.990;-1.608;2023-02-13T12:04:51;17.80;65.70
49379;DHT22;35254;47.990;-1.608;2023-02-13T12:09:45;17.90;65.80
49379;DHT22;35254;47.990;-1.608;2023-02-13T12:12:41;17.90;66.30
49379;DHT22;35254;47.990;-1.608;2023-02-13T12:15:17;17.90;65.40
49379;DHT22;35254;47.990;-1.608;2023-02-13T12:17:44;17.90;65.90
49379;DHT22;35254;47.990;-1.608;2023-02-13T12:20:13;17.90;65.40
49379;DHT22;35254;47.990;-1.608;2023-02-13T12:23:02;17.90;61.30
49379;DHT22;35254;47.990;-1.608;2023-02-13T12:25:45;17.90;59.40
49379;DHT22;35254;47.990;-1.608;2023-02-13T12:28:14;17.90;58.30
49379;DHT22;35254;47.990;-1.608;2023-02-13T12:34:10;17.90;57.30
49379;DHT22;35254;47.990;-1.608;2023-02-13T12:36:58;17.90;57.60
49379;DHT22;35254;47.990;-1.608;2023-02-13T12:39:46;17.90;56.80
49379;DHT22;35254;47.990;-1.608;2023-02-13T12:45:01;18.00;56.60
49379;DHT22;35254;47.990;-1.608;2023-02-13T12:48:18;18.00;56.20
49379;DHT22;35254;47.990;-1.608;2023-02-13T12:56:02;18.00;55.80
49379;DHT22;35254;47.990;-1.608;2023-02-13T13:07:13;18.10;55.10
49379;DHT22;35254;47.990;-1.608;2023-02-13T13:15:03;18.10;54.60
49379;DHT22;35254;47.990;-1.608;2023-02-13T13:18:00;18.10;54.30
49379;DHT22;35254;47.990;-1.608;2023-02-13T13:28:57;18.10;53.50
49379;DHT22;35254;47.990;-1.608;2023-02-13T13:31:26;18.10;52.90
49379;DHT22;35254;47.990;-1.608;2023-02-13T13:33:55;18.10;53.10
49379;DHT22;35254;47.990;-1.608;2023-02-13T13:47:46;18.10;53.10
49379;DHT22;35254;47.990;-1.608;2023-02-13T13:50:19;18.20;53.10
49379;DHT22;35254;47.990;-1.608;2023-02-13T13:53:15;18.20;53.10
49379;DHT22;35254;47.990;-1.608;2023-02-13T14:06:25;18.20;52.60
49379;DHT22;35254;47.990;-1.608;2023-02-13T14:08:55;18.20;52.90
49379;DHT22;35254;47.990;-1.608;2023-02-13T14:11:36;18.20;52.80
49379;DHT22;35254;47.990;-1.608;2023-02-13T14:17:00;18.30;52.40
49379;DHT22;35254;47.990;-1.608;2023-02-13T14:19:33;18.30;52.50
49379;DHT22;35254;47.990;-1.608;2023-02-13T14:24:55;18.30;52.10
49379;DHT22;35254;47.990;-1.608;2023-02-13T14:27:32;18.40;52.30
49379;DHT22;35254;47.990;-1.608;2023-02-13T14:29:59;18.40;52.20
49379;DHT22;35254;47.990;-1.608;2023-02-13T14:35:03;18.40;51.90
49379;DHT22;35254;47.990;-1.608;2023-02-13T14:40:10;18.40;54.80
49379;DHT22;35254;47.990;-1.608;2023-02-13T14:42:37;18.40;53.90
49379;DHT22;35254;47.990;-1.608;2023-02-13T14:45:09;18.50;53.70
49379;DHT22;35254;47.990;-1.608;2023-02-13T14:47:39;18.50;54.10
49379;DHT22;35254;47.990;-1.608;2023-02-13T14:50:14;18.50;54.30
49379;DHT22;35254;47.990;-1.608;2023-02-13T14:52:45;18.50;54.10
49379;DHT22;35254;47.990;-1.608;2023-02-13T14:55:22;18.50;54.10
49379;DHT22;35254;47.990;-1.608;2023-02-13T14:58:05;18.60;54.30
49379;DHT22;35254;47.990;-1.608;2023-02-13T15:00:43;18.50;53.80
49379;DHT22;35254;47.990;-1.608;2023-02-13T15:05:58;18.50;54.00
49379;DHT22;35254;47.990;-1.608;2023-02-13T15:08:50;18.60;54.40
49379;DHT22;35254;47.990;-1.608;2023-02-13T15:11:35;18.60;54.40
49379;DHT22;35254;47.990;-1.608;2023-02-13T15:17:13;18.50;53.90
49379;DHT22;35254;47.990;-1.608;2023-02-13T15:19:44;18.50;54.00
49379;DHT22;35254;47.990;-1.608;2023-02-13T15:22:28;18.50;54.00
49379;DHT22;35254;47.990;-1.608;2023-02-13T15:24:55;18.60;54.10
49379;DHT22;35254;47.990;-1.608;2023-02-13T15:27:35;18.60;54.00
49379;DHT22;35254;47.990;-1.608;2023-02-13T15:32:34;18.60;53.90
49379;DHT22;35254;47.990;-1.608;2023-02-13T15:35:30;18.60;54.10
49379;DHT22;35254;47.990;-1.608;2023-02-13T15:37:57;18.60;53.80
49379;DHT22;35254;47.990;-1.608;2023-02-13T15:40:28;18.60;54.00
49379;DHT22;35254;47.990;-1.608;2023-02-13T15:42:55;18.60;53.90
49379;DHT22;35254;47.990;-1.608;2023-02-13T15:45:23;18.60;53.90
49379;DHT22;35254;47.990;-1.608;2023-02-13T15:47:50;18.60;53.80
49379;DHT22;35254;47.990;-1.608;2023-02-13T15:52:51;18.60;53.40
49379;DHT22;35254;47.990;-1.608;2023-02-13T15:55:23;18.50;53.60
49379;DHT22;35254;47.990;-1.608;2023-02-13T15:57:50;18.50;53.60
49379;DHT22;35254;47.990;-1.608;2023-02-13T16:00:39;18.50;53.70
49379;DHT22;35254;47.990;-1.608;2023-02-13T16:03:12;18.50;53.60
49379;DHT22;35254;47.990;-1.608;2023-02-13T16:05:39;18.50;53.70
49379;DHT22;35254;47.990;-1.608;2023-02-13T16:08:36;18.50;53.90
49379;DHT22;35254;47.990;-1.608;2023-02-13T16:11:22;18.50;53.80
49379;DHT22;35254;47.990;-1.608;2023-02-13T16:16:35;18.50;53.70
49379;DHT22;35254;47.990;-1.608;2023-02-13T16:21:47;18.50;53.60
49379;DHT22;35254;47.990;-1.608;2023-02-13T16:24:14;18.50;53.70
49379;DHT22;35254;47.990;-1.608;2023-02-13T16:26:41;18.50;53.70
49379;DHT22;35254;47.990;-1.608;2023-02-13T16:29:19;18.50;53.30
49379;DHT22;35254;47.990;-1.608;2023-02-13T16:31:46;18.50;53.40
49379;DHT22;35254;47.990;-1.608;2023-02-13T16:34:25;18.50;53.40
49379;DHT22;35254;47.990;-1.608;2023-02-13T16:36:51;18.50;53.30
49379;DHT22;35254;47.990;-1.608;2023-02-13T16:39:31;18.50;53.30
49379;DHT22;35254;47.990;-1.608;2023-02-13T16:41:59;18.50;53.40
49379;DHT22;35254;47.990;-1.608;2023-02-13T16:44:30;18.50;53.30
49379;DHT22;35254;47.990;-1.608;2023-02-13T16:47:02;18.50;53.80
49379;DHT22;35254;47.990;-1.608;2023-02-13T16:49:36;18.50;53.90
49379;DHT22;35254;47.990;-1.608;2023-02-13T16:52:23;18.50;54.00
49379;DHT22;35254;47.990;-1.608;2023-02-13T16:54:58;18.50;54.20
49379;DHT22;35254;47.990;-1.608;2023-02-13T16:57:33;18.50;54.20
49379;DHT22;35254;47.990;-1.608;2023-02-13T17:00:06;18.50;54.50
49379;DHT22;35254;47.990;-1.608;2023-02-13T17:02:37;18.50;54.40
49379;DHT22;35254;47.990;-1.608;2023-02-13T17:07:35;18.50;54.40
49379;DHT22;35254;47.990;-1.608;2023-02-13T17:12:30;18.50;54.40
49379;DHT22;35254;47.990;-1.608;2023-02-13T17:14:59;18.50;54.30
49379;DHT22;35254;47.990;-1.608;2023-02-13T17:17:27;18.50;54.00
49379;DHT22;35254;47.990;-1.608;2023-02-13T17:19:53;18.50;54.10
49379;DHT22;35254;47.990;-1.608;2023-02-13T17:22:40;18.50;54.00
49379;DHT22;35254;47.990;-1.608;2023-02-13T17:25:14;18.60;54.00
49379;DHT22;35254;47.990;-1.608;2023-02-13T17:27:41;18.60;53.90
49379;DHT22;35254;47.990;-1.608;2023-02-13T17:30:12;18.50;53.80
49379;DHT22;35254;47.990;-1.608;2023-02-13T17:32:38;18.50;53.80
49379;DHT22;35254;47.990;-1.608;2023-02-13T17:35:04;18.50;53.60
49379;DHT22;35254;47.990;-1.608;2023-02-13T17:37:30;18.50;53.40
49379;DHT22;35254;47.990;-1.608;2023-02-13T17:39:57;18.50;53.20
49379;DHT22;35254;47.990;-1.608;2023-02-13T17:42:27;18.60;53.10
49379;DHT22;35254;47.990;-1.608;2023-02-13T17:44:54;18.60;53.00
49379;DHT22;35254;47.990;-1.608;2023-02-13T17:47:20;18.60;53.00
49379;DHT22;35254;47.990;-1.608;2023-02-13T17:49:46;18.50;53.10
49379;DHT22;35254;47.990;-1.608;2023-02-13T17:52:18;18.50;53.20
49379;DHT22;35254;47.990;-1.608;2023-02-13T17:54:45;18.50;53.60
49379;DHT22;35254;47.990;-1.608;2023-02-13T17:57:13;18.60;53.10
49379;DHT22;35254;47.990;-1.608;2023-02-13T17:59:39;18.50;53.00
49379;DHT22;35254;47.990;-1.608;2023-02-13T18:02:25;18.50;52.90
49379;DHT22;35254;47.990;-1.608;2023-02-13T18:04:52;18.50;52.80
49379;DHT22;35254;47.990;-1.608;2023-02-13T18:07:19;18.60;52.70
49379;DHT22;35254;47.990;-1.608;2023-02-13T18:09:45;18.50;52.60
49379;DHT22;35254;47.990;-1.608;2023-02-13T18:12:20;18.60;52.60
49379;DHT22;35254;47.990;-1.608;2023-02-13T18:14:47;18.50;52.50
49379;DHT22;35254;47.990;-1.608;2023-02-13T18:17:13;18.60;52.40
49379;DHT22;35254;47.990;-1.608;2023-02-13T18:19:39;18.50;52.30
49379;DHT22;35254;47.990;-1.608;2023-02-13T18:22:07;18.60;52.20
49379;DHT22;35254;47.990;-1.608;2023-02-13T18:24:34;18.60;52.10
49379;DHT22;35254;47.990;-1.608;2023-02-13T18:27:01;18.50;52.10